Hood Army Air Field
KHLR : now visible

Airfield :











YOU CAN JOIN US ON...

 
LOGIN :

Register | Disclaimer

   EN    FR    IT 

 









Legend :    VFR   Marginal VFR   IFR   Intensive IFR   Very Intensive IFR
Visi :
Ceiling :
>= 8 km
>= 3000ft
5 to 8 km
1000 to 3000 ft
1500m to 5 km
500 to 1000 ft
800 to 1500m
200 to 500 ft
< 800m
< 200 ft
Symbols :   Thunderstorms  Fog  Heavy snow  Heavy precipitations  Wind > 20 kt






- Airport Elevation : 924 ft


KHLR - Hood Army Air Field

CURRENT METAR :
  • 181655Z AUTO 17008KT 10SM FEW027 30/23 A2987 RMK AO2 SLP104 T03010225

EXPIRED METARs :
  • 181635Z AUTO 17010KT 10SM SCT027 29/23 A2988 RMK AO2 SLP107
  • 181625Z AUTO 13014KT 10SM SCT024 BKN030 30/23 A2988 RMK AO2 SLP107
  • 181555Z AUTO 14015KT 10SM BKN021 BKN027 BKN035 28/22 A2988 RMK AO2 SLP107 T02820224
  • 181455Z 16010KT 10SM BKN015 BKN022 27/23 A2989 RMK AO2A BKN015 V OVC SLP111 T02740228 52019
  • 181355Z 16011G16KT 10SM OVC012 26/22 A2986 RMK AO2A OVC V BKN SLP100 T02570224
  • 181340Z 15014KT 10SM BKN012 OVC035 25/23 A2986 RMK AO2A CIG 012V035 BKN V SCT SLP100
  • 181325Z 15011KT 10SM SCT009 BKN033 25/22 A2985 RMK AO2A SLP097
  • 181255Z 16011KT 10SM OVC009 24/22 A2985 RMK AO2A SLP097 T02440224

TAF N/A
KZHU FIR / North America



MET'MAP, your aeronautical weather chart ! - Copyright ORBIFLY December 2007 - Disclaimer

ORBIFLY MET'MAP TEAM :

Programming & Development : Alexandra Zaïnal
Original concept : Baudouin d'Aumeries
Technical & hardware support : Manuel Goepfert
Assistance : Marc-Olivier Méhu




SOURCES & CREDITS :

   NOAA       Earth
Advisory